Data for 06/02/2016

Time Sea-Level Adjusted Pressure Absolute Pressure Temperature Relative Humidity Dew Point   
(mb) (inHg) (mb) (inHg) (C) (F) (%) (C) (F)
00:05 1017 30.03 846 24.98 14.2 57.6 41 1.3 34.3
00:10 1017 30.03 846 24.98 14.3 57.7 41 1.4 34.4
00:15 1017 30.03 846 24.98 14.1 57.4 41 1.3 34.3
00:20 1017 30.03 846 24.98 14.1 57.3 42 1.4 34.6
00:25 1017 30.03 846 24.98 13.8 56.8 43 1.4 34.5
00:30 1017 30.03 846 24.98 13.8 56.8 43 1.5 34.8
00:35 1017 30.03 847 25.01 13.8 56.9 43 1.5 34.6
00:40 1018 30.06 847 25.01 14.5 58 39 0.7 33.2
00:45 1018 30.06 847 25.01 15 59 39 1.3 34.3
00:50 1018 30.06 847 25.01 15.2 59.4 41 2.2 36
00:55 1017 30.03 846 24.98 15.2 59.4 45 3.3 38
01:00 1017 30.03 846 24.98 14.5 58.1 46 3.2 37.7
01:05 1017 30.03 846 24.98 14 57.2 47 3 37.4
01:10 1017 30.03 846 24.98 14 57.3 46 2.7 36.9
01:15 1017 30.03 846 24.98 14.3 57.7 47 3.1 37.6
01:20 1017 30.03 846 24.98 14 57.3 47 3 37.4
01:25 1017 30.03 846 24.98 13.6 56.6 47 2.5 36.6
01:30 1017 30.03 846 24.98 13.7 56.7 46 2.5 36.6
01:35 1017 30.03 846 24.98 13.8 56.9 46 2.4 36.3
01:40 1017 30.03 846 24.98 13.9 56.9 45 2.2 35.9
01:45 1017 30.03 846 24.98 13.8 56.9 44 2 35.6
01:50 1017 30.03 846 24.98 13.6 56.5 45 2.1 35.7
01:55 1017 30.03 846 24.98 13.5 56.3 45 1.9 35.5
02:00 1017 30.03 846 24.98 13.4 56.2 46 2.1 35.7
02:05 1017 30.03 846 24.98 13.1 55.6 47 2.2 35.9
02:10 1017 30.03 846 24.98 13 55.3 47 1.9 35.4
02:15 1017 30.03 846 24.98 13 55.3 47 2 35.6
02:20 1017 30.03 846 24.98 12.7 54.8 48 2.1 35.7
02:25 1017 30.03 846 24.98 12.4 54.3 50 2.3 36.2
02:30 1017 30.03 846 24.98 12.2 53.9 51 2.3 36.1
02:35 1017 30.03 846 24.98 12.1 53.7 50 2 35.7
02:40 1017 30.03 846 24.98 12.2 53.9 50 2.3 36.1
02:45 1017 30.03 846 24.98 12.3 54.2 48 1.7 35.1
02:50 1017 30.03 847 25.01 12.8 55 47 1.8 35.3
02:55 1017 30.03 846 24.98 12.8 55 49 2.3 36.1
03:00 1017 30.03 846 24.98 12.6 54.6 50 2.6 36.7
03:05 1017 30.03 846 24.98 12.2 54 52 2.6 36.7
03:10 1017 30.03 846 24.98 11.8 53.3 52 2.4 36.3
03:15 1017 30.03 846 24.98 11.6 52.9 54 2.6 36.7
03:20 1017 30.03 846 24.98 11.5 52.6 54 2.4 36.4
03:25 1017 30.03 846 24.98 11.5 52.7 53 2.4 36.3
03:30 1017 30.03 846 24.98 11.5 52.7 53 2.3 36.1
03:35 1017 30.03 846 24.98 11.7 53.1 51 2 35.7
03:40 1017 30.03 846 24.98 11.9 53.4 51 2.2 35.9
03:45 1017 30.03 846 24.98 11.4 52.6 55 2.8 37
03:50 1017 30.03 846 24.98 10.7 51.2 58 2.8 37
03:55 1017 30.03 846 24.98 10.7 51.3 54 1.9 35.4
04:00 1017 30.03 846 24.98 11 51.8 54 2.2 35.9
04:05 1017 30.03 846 24.98 10.8 51.5 56 2.4 36.4
04:10 1017 30.03 846 24.98 10.6 51 56 2.3 36.1
04:15 1017 30.03 846 24.98 10.6 51 55 1.9 35.5
04:20 1017 30.03 846 24.98 10.9 51.7 54 2 35.6
04:25 1017 30.03 846 24.98 11.3 52.4 52 1.8 35.3
04:30 1017 30.03 846 24.98 11.2 52.2 53 2 35.6
04:35 1017 30.03 846 24.98 11.4 52.5 51 1.7 35.1
04:40 1017 30.03 846 24.98 11.8 53.3 49 1.4 34.6
04:45 1017 30.03 846 24.98 12.2 53.9 49 1.8 35.2
04:50 1017 30.03 846 24.98 12.1 53.8 52 2.5 36.5
04:55 1017 30.03 846 24.98 11.6 52.8 54 2.6 36.7
05:00 1017 30.03 847 25.01 11.4 52.5 54 2.5 36.5
05:05 1017 30.03 847 25.01 11.4 52.5 54 2.5 36.6
05:10 1018 30.06 847 25.01 11.4 52.4 56 2.9 37.3
05:15 1018 30.06 847 25.01 11.1 52 57 3 37.4
05:20 1018 30.06 847 25.01 10.6 51.2 59 3 37.3
05:25 1018 30.06 847 25.01 10.7 51.3 58 2.8 37
05:30 1018 30.06 847 25.01 10.9 51.7 56 2.7 36.8
05:35 1018 30.06 848 25.04 11.2 52.1 57 3 37.4
05:40 1018 30.06 848 25.04 11.2 52.1 56 2.8 37.1
05:45 1018 30.06 848 25.04 11.3 52.3 58 3.3 37.9
05:50 1018 30.06 848 25.04 11 51.8 60 3.5 38.2
05:55 1018 30.06 847 25.01 10.6 51 62 3.6 38.4
06:00 1018 30.06 847 25.01 10.5 50.8 62 3.6 38.5
06:05 1018 30.06 847 25.01 10.6 51 62 3.5 38.4
06:10 1018 30.06 848 25.04 11 51.8 58 3.2 37.7
06:15 1018 30.06 848 25.04 11.5 52.8 57 3.3 38
06:20 1019 30.09 848 25.04 12 53.6 56 3.7 38.6
06:25 1018 30.06 847 25.01 12.2 53.9 58 4.1 39.4
06:30 1018 30.06 847 25.01 11.8 53.2 59 4.1 39.3
06:35 1018 30.06 847 25.01 11.8 53.3 58 3.8 38.8
06:40 1018 30.06 847 25.01 12 53.7 57 3.8 38.9
06:45 1018 30.06 847 25.01 12.3 54.1 55 3.6 38.4
06:50 1018 30.06 847 25.01 12.6 54.6 56 4.1 39.3
06:55 1018 30.06 847 25.01 12.7 54.9 56 4.4 39.9
07:00 1018 30.06 847 25.01 12.8 55 58 4.9 40.7
07:05 1018 30.06 847 25.01 12.8 55 58 4.8 40.6
07:10 1018 30.06 847 25.01 12.9 55.3 57 4.8 40.6
07:15 1018 30.06 847 25.01 13.2 55.8 56 4.8 40.6
07:20 1018 30.06 847 25.01 13.4 56.2 55 4.6 40.3
07:25 1018 30.06 847 25.01 13.9 57 51 3.9 39
07:30 1018 30.06 847 25.01 14.6 58.3 49 4 39.2
07:35 1018 30.06 847 25.01 15 59.1 48 4.1 39.5
07:40 1018 30.06 847 25.01 15.7 60.2 46 4.1 39.3
07:45 1018 30.06 847 25.01 16.1 60.9 43 3.7 38.7
07:50 1018 30.06 847 25.01 16.1 60.9 43 3.7 38.7
07:55 1018 30.06 847 25.01 16.2 61.1 41 3.2 37.7
08:00 1018 30.06 847 25.01 17.2 63 38 2.8 37
08:05 1018 30.06 847 25.01 17.6 63.6 39 3.4 38.1
08:10 1018 30.06 847 25.01 17.1 62.8 40 3.5 38.3
08:15 1018 30.06 847 25.01 17.3 63.1 37 2.6 36.7
08:20 1018 30.06 847 25.01 17.9 64.2 35 2.6 36.6
08:25 1018 30.06 847 25.01 18.8 65.8 33 2.3 36.2
08:30 1018 30.06 847 25.01 19 66.3 33 2.7 36.9
08:35 1018 30.06 847 25.01 19.7 67.4 32 2.6 36.6
08:40 1018 30.06 847 25.01 19.7 67.4 31 2.4 36.3
08:45 1017 30.03 847 25.01 19.8 67.6 31 2.2 35.9
08:50 1017 30.03 847 25.01 20.2 68.4 30 2.4 36.4
08:55 1018 30.06 847 25.01 19.9 67.7 32 2.7 36.8
09:00 1018 30.06 847 25.01 19.6 67.3 31 2.2 35.9
09:05 1018 30.06 847 25.01 20 68 30 2.3 36.1
09:10 1017 30.03 847 25.01 20.7 69.2 31 3.1 37.7
09:15 1018 30.06 847 25.01 20.4 68.8 31 2.9 37.3
09:20 1018 30.06 847 25.01 19.8 67.6 32 2.7 36.9
09:25 1018 30.06 847 25.01 19.4 66.8 33 3 37.4
09:30 1018 30.06 847 25.01 19.2 66.6 33 2.7 36.8
09:35 1018 30.06 847 25.01 19.1 66.3 34 2.9 37.2
09:40 1018 30.06 847 25.01 18.9 66 35 3.3 38
09:45 1018 30.06 847 25.01 18.8 65.9 35 3.4 38.1
09:50 1018 30.06 847 25.01 18.7 65.7 35 3.3 37.9
09:55 1018 30.06 847 25.01 18.6 65.4 38 4.2 39.5
10:00 1018 30.06 847 25.01 18.6 65.5 38 4 39.3
10:05 1017 30.03 847 25.01 18.2 64.8 40 4.7 40.4
10:10 1017 30.03 846 24.98 18.4 65 36 3 37.4
10:15 1017 30.03 846 24.98 18.8 65.9 33 2.3 36.2
10:20 1017 30.03 846 24.98 19.6 67.3 33 3.2 37.8
10:25 1017 30.03 846 24.98 19.6 67.3 32 2.4 36.3
10:30 1017 30.03 846 24.98 20.6 69.1 30 2.7 36.9
10:35 1017 30.03 846 24.98 21.5 70.7 31 3.8 38.8
10:40 1017 30.03 846 24.98 21.8 71.2 31 4.2 39.5
10:45 1017 30.03 847 25.01 21.4 70.5 32 4.2 39.6
10:50 1017 30.03 847 25.01 20.3 68.5 35 4.7 40.4
10:55 1017 30.03 847 25.01 19.7 67.5 40 5.8 42.5
11:00 1017 30.03 847 25.01 19.9 67.7 39 5.6 42.1
11:05 1017 30.03 846 24.98 20.3 68.5 36 5 41
11:10 1017 30.03 846 24.98 20.5 68.8 36 5.1 41.2
11:15 1017 30.03 847 25.01 20.1 68.3 33 3.6 38.5
11:20 1017 30.03 847 25.01 20.5 68.9 36 5.1 41.2
11:25 1017 30.03 846 24.98 20.6 69.1 33 4 39.2
11:30 1017 30.03 847 25.01 20.3 68.5 36 5.1 41.1
11:35 1017 30.03 847 25.01 20.1 68.2 36 4.7 40.4
11:40 1017 30.03 847 25.01 20.3 68.5 32 3.3 38
11:45 1017 30.03 847 25.01 20.4 68.8 32 3.5 38.2
11:50 1017 30.03 847 25.01 20.5 68.8 30 2.6 36.7
11:55 1017 30.03 847 25.01 20.7 69.3 31 3.2 37.7
12:00 1017 30.03 847 25.01 20.7 69.3 31 3 37.4
12:05 1017 30.03 847 25.01 20.8 69.4 31 3.3 37.9
12:10 1017 30.03 847 25.01 20.6 69 32 3.3 38
12:15 1017 30.03 847 25.01 20.8 69.4 30 2.7 36.8
12:20 1017 30.03 847 25.01 21 69.7 30 3.1 37.6
12:25 1018 30.06 847 25.01 21 69.9 30 3.1 37.6
12:30 1018 30.06 847 25.01 20.8 69.5 30 2.7 36.8
12:35 1018 30.06 847 25.01 21.1 69.9 30 2.9 37.3
12:40 1017 30.03 847 25.01 21.6 70.8 29 3.1 37.6
12:45 1017 30.03 847 25.01 21.9 71.4 29 3.2 37.8
12:50 1018 30.06 847 25.01 21.7 71.1 30 3.4 38.1
12:55 1017 30.03 847 25.01 21.3 70.3 30 3.3 37.9
13:00 1018 30.06 847 25.01 21 69.7 31 3.2 37.7
13:05 1018 30.06 847 25.01 20.8 69.5 32 3.9 38.9
13:10 1018 30.06 847 25.01 21 69.8 31 3.4 38.2
13:15 1018 30.06 847 25.01 21.1 70 31 3.6 38.6
13:20 1018 30.06 847 25.01 20.9 69.5 32 3.9 39
13:25 1018 30.06 847 25.01 21.5 70.6 31 4 39.2
13:30 1018 30.06 847 25.01 21.6 70.8 31 4.1 39.3
13:35 1018 30.06 847 25.01 21.2 70.2 32 4.1 39.4
13:40 1018 30.06 847 25.01 21.4 70.4 32 4.2 39.6
13:45 1018 30.06 847 25.01 21.7 71.1 31 4 39.2
13:50 1018 30.06 847 25.01 21.5 70.7 32 4.1 39.4
13:55 1018 30.06 847 25.01 21.1 69.9 33 4.4 40
14:00 1018 30.06 847 25.01 21.2 70.1 33 4.4 39.9
14:05 1018 30.06 847 25.01 21 69.8 33 4.1 39.5
14:10 1018 30.06 847 25.01 20.8 69.5 33 4.1 39.3
14:15 1018 30.06 847 25.01 20.9 69.7 32 3.9 39.1
14:20 1018 30.06 847 25.01 21.2 70.1 32 3.9 39
14:25 1018 30.06 847 25.01 21.2 70.1 32 4.1 39.3
14:30 1018 30.06 847 25.01 20.9 69.7 32 3.9 39
14:35 1018 30.06 847 25.01 20.6 69.1 32 3.5 38.2
14:40 1018 30.06 847 25.01 20.8 69.4 32 3.4 38.2
14:45 1018 30.06 847 25.01 20.6 69 31 3.2 37.7
14:50 1018 30.06 847 25.01 20.4 68.8 33 3.8 38.8
14:55 1018 30.06 847 25.01 20.2 68.4 33 3.5 38.2
15:00 1018 30.06 848 25.04 20 68.1 31 2.4 36.4
15:05 1018 30.06 847 25.01 19.6 67.3 34 3.6 38.5
15:10 1018 30.06 848 25.04 19.8 67.6 34 3.5 38.3
15:15 1018 30.06 848 25.04 19.8 67.6 33 3.2 37.8
15:20 1018 30.06 848 25.04 19.6 67.3 32 2.7 36.9
15:25 1018 30.06 847 25.01 19.7 67.4 31 2.4 36.4
15:30 1018 30.06 847 25.01 19.6 67.3 32 2.8 37
15:35 1018 30.06 847 25.01 19.3 66.7 34 3.2 37.8
15:40 1018 30.06 847 25.01 19.2 66.5 34 3 37.4
15:45 1018 30.06 847 25.01 19.1 66.3 35 3.3 38
15:50 1018 30.06 847 25.01 19.2 66.5 33 2.6 36.7
15:55 1018 30.06 847 25.01 19.1 66.4 32 2.2 35.9
16:00 1018 30.06 847 25.01 19.2 66.5 31 1.8 35.3
16:05 1018 30.06 847 25.01 19.2 66.6 30 1.4 34.6
16:10 1018 30.06 847 25.01 19.2 66.6 30 1.5 34.7
16:15 1018 30.06 847 25.01 19.3 66.7 30 1.6 34.9
16:20 1018 30.06 847 25.01 19.2 66.6 30 1.4 34.6
16:25 1018 30.06 848 25.04 19.2 66.5 31 2 35.6
16:30 1018 30.06 848 25.04 19.2 66.5 30 1.2 34.2
16:35 1018 30.06 848 25.04 19.2 66.6 31 1.6 34.9
16:40 1018 30.06 848 25.04 19.2 66.5 31 2 35.5
16:45 1018 30.06 848 25.04 19.1 66.4 32 2.1 35.8
16:50 1019 30.09 848 25.04 19 66.2 32 1.9 35.5
16:55 1019 30.09 848 25.04 18.9 65.9 32 1.9 35.4
17:00 1019 30.09 848 25.04 18.7 65.7 33 2.1 35.7
17:05 1018 30.06 848 25.04 18.7 65.6 33 2.3 36.1
17:10 1018 30.06 848 25.04 18.6 65.5 33 2 35.6
17:15 1018 30.06 848 25.04 18.6 65.4 33 2.2 36
17:20 1018 30.06 848 25.04 18.5 65.3 35 2.8 37
17:25 1019 30.09 848 25.04 18.5 65.3 35 2.8 37
17:30 1019 30.09 848 25.04 18.5 65.2 35 2.8 37.1
17:35 1019 30.09 848 25.04 18.5 65.2 35 2.9 37.3
17:40 1019 30.09 848 25.04 18.3 65 35 2.9 37.3
17:45 1019 30.09 848 25.04 18.3 64.9 36 3.3 37.9
17:50 1019 30.09 848 25.04 18.2 64.8 36 3.1 37.5
17:55 1019 30.09 848 25.04 18.2 64.8 36 3.1 37.6
18:00 1019 30.09 848 25.04 18.1 64.6 37 3.3 37.9
18:05 1019 30.09 848 25.04 18.1 64.5 37 3.4 38.1
18:10 1019 30.09 848 25.04 18 64.4 38 3.7 38.7
18:15 1019 30.09 848 25.04 18 64.3 39 3.9 39
18:20 1019 30.09 848 25.04 17.8 64.1 39 4 39.1
18:25 1019 30.09 848 25.04 17.8 64 40 4.1 39.4
18:30 1019 30.09 848 25.04 17.7 63.9 40 4.1 39.4
18:35 1019 30.09 848 25.04 17.6 63.8 40 4 39.2
18:40 1019 30.09 848 25.04 17.6 63.6 41 4.2 39.6
18:45 1019 30.09 848 25.04 17.5 63.6 39 3.4 38.2
18:50 1019 30.09 848 25.04 17.5 63.6 38 3.1 37.6
18:55 1019 30.09 848 25.04 17.5 63.5 38 3.1 37.5
19:00 1019 30.09 848 25.04 17.5 63.4 37 2.7 36.8
19:05 1019 30.09 848 25.04 17.4 63.4 37 2.6 36.7
19:10 1019 30.09 848 25.04 17.4 63.2 37 2.7 36.8
19:15 1019 30.09 848 25.04 17.3 63.2 37 2.7 36.8
19:20 1019 30.09 849 25.07 17.3 63.2 37 2.8 37
19:25 1020 30.12 849 25.07 17.3 63.1 38 2.9 37.3
19:30 1020 30.12 849 25.07 17.2 63 41 4.1 39.4
19:35 1020 30.12 849 25.07 16.7 62 43 4.2 39.6
19:40 1020 30.12 849 25.07 16.6 61.8 42 3.6 38.5
19:45 1020 30.12 849 25.07 16.6 61.8 42 3.8 38.9
19:50 1020 30.12 849 25.07 16.6 61.8 42 3.6 38.5
19:55 1020 30.12 849 25.07 16.7 62 41 3.5 38.2
20:00 1020 30.12 849 25.07 16.7 62.1 41 3.6 38.5
20:05 1020 30.12 849 25.07 16.7 62.1 40 3.3 37.9
20:10 1020 30.12 849 25.07 16.8 62.2 40 3.1 37.6
20:15 1020 30.12 849 25.07 16.8 62.3 40 3.3 38
20:20 1020 30.12 849 25.07 16.7 62.1 41 3.4 38.2
20:25 1020 30.12 849 25.07 16.6 61.9 42 3.6 38.5
20:30 1020 30.12 849 25.07 16.4 61.6 42 3.7 38.7
20:35 1020 30.12 849 25.07 16.4 61.5 42 3.4 38.1
20:40 1020 30.12 849 25.07 16.5 61.7 41 3.3 38
20:45 1020 30.12 849 25.07 16.5 61.6 40 3 37.3
20:50 1020 30.12 849 25.07 16.4 61.6 40 2.9 37.2
20:55 1020 30.12 849 25.07 16.4 61.4 39 2.5 36.5
21:00 1020 30.12 849 25.07 16.4 61.5 39 2.3 36.2
21:05 1020 30.12 850 25.1 16.3 61.4 37 1.7 35
21:10 1021 30.15 850 25.1 16.3 61.3 34 0.6 33.1
21:15 1021 30.15 850 25.1 16.4 61.5 34 0.7 33.3
21:20 1021 30.15 850 25.1 16.3 61.4 35 1.1 34
21:25 1021 30.15 850 25.1 16.1 61 36 1.2 34.2
21:30 1021 30.15 850 25.1 15.9 60.7 37 1.3 34.4
21:35 1021 30.15 850 25.1 15.8 60.4 38 1.5 34.6
21:40 1021 30.15 850 25.1 15.7 60.2 37 1.2 34.2
21:45 1021 30.15 850 25.1 15.7 60.2 38 1.4 34.6
21:50 1021 30.15 850 25.1 15.6 60 39 1.6 34.9
21:55 1021 30.15 851 25.13 15.4 59.6 40 2.1 35.8
22:00 1021 30.15 851 25.13 15.1 59.2 41 2 35.6
22:05 1021 30.15 851 25.13 15 59 41 1.9 35.4
22:10 1021 30.15 851 25.13 15 59.1 40 1.8 35.3
22:15 1021 30.15 851 25.13 15 59.1 40 1.8 35.2
22:20 1021 30.15 851 25.13 15 59.1 41 1.9 35.5
22:25 1021 30.15 851 25.13 15 59 41 2 35.5
22:30 1021 30.15 850 25.1 15 59 42 2.1 35.8
22:35 1021 30.15 850 25.1 14.9 58.9 42 2.1 35.8
22:40 1021 30.15 850 25.1 14.9 58.8 42 2.3 36.1
22:45 1021 30.15 850 25.1 14.8 58.6 43 2.3 36.2
22:50 1021 30.15 850 25.1 14.6 58.3 43 2.4 36.4
22:55 1021 30.15 851 25.13 14.5 58 45 2.7 36.8
23:00 1021 30.15 851 25.13 14.2 57.6 46 2.8 37.1
23:05 1022 30.18 851 25.13 14.1 57.4 46 2.6 36.7
23:10 1022 30.18 851 25.13 14.2 57.6 45 2.6 36.6
23:15 1022 30.18 851 25.13 14.2 57.6 46 2.7 36.9
23:20 1022 30.18 851 25.13 14.1 57.3 48 3.2 37.7
23:25 1022 30.18 851 25.13 13.7 56.7 48 3.1 37.5
23:30 1022 30.18 851 25.13 13.6 56.4 49 3 37.4
23:35 1022 30.18 851 25.13 13.6 56.4 49 3 37.4
23:40 1022 30.18 851 25.13 13.5 56.3 49 3 37.4
23:45 1022 30.18 851 25.13 13.5 56.3 48 2.9 37.2
23:50 1022 30.18 851 25.13 13.5 56.4 47 2.7 36.8
23:55 1022 30.18 851 25.13 13.5 56.3 50 3.3 37.9
24:00 1022 30.18 851 25.13 13.5 56.4 46 2.3 36.2